Time;durP1;ratioP1;P1;durP2;ratioP2;P2;SDS_P1;SDS_P2;PMS_P1;PMS_P2;Temp;Humidity;BMP_temperature;BMP_pressure;BME280_temperature;BME280_humidity;BME280_pressure;Samples;Min_cycle;Max_cycle;Signal;HPM_P1;HPM_P2
2022/08/24 00:00:35;;;;;;;;;6.00;6.00;;;;;26.28;49.94;101063.88;2113328;27;48040;-53
2022/08/24 00:01:35;;;;;;;;;6.25;6.00;;;;;26.28;49.62;101054.84;2095620;28;47327;-50
2022/08/24 00:02:35;;;;;;;;;5.75;5.50;;;;;26.27;50.49;101058.56;2088775;28;47930;-52
2022/08/24 00:03:38;;;;;;;;;6.75;6.75;;;;;26.26;50.51;101057.69;2086861;28;47412;-54
2022/08/24 00:04:38;;;;;;;;;9.40;7.40;;;;;26.27;50.06;101053.13;2097069;28;47606;-52
2022/08/24 00:05:39;;;;;;;;;5.50;4.75;;;;;26.25;49.72;101057.81;2096625;28;47211;-55
2022/08/24 00:06:39;;;;;;;;;9.50;9.50;;;;;26.24;49.86;101050.66;2095359;28;47289;-53
2022/08/24 00:07:40;;;;;;;;;9.00;7.25;;;;;26.23;49.74;101057.94;2096890;28;47374;-53
2022/08/24 00:08:40;;;;;;;;;8.25;8.25;;;;;26.23;50.14;101057.09;2095948;28;48022;-49
2022/08/24 00:09:41;;;;;;;;;9.00;9.00;;;;;26.22;50.50;101061.66;2095801;27;47330;-55
2022/08/24 00:10:42;;;;;;;;;6.50;6.50;;;;;26.21;50.10;101057.22;2096907;28;47364;-52
2022/08/24 00:11:43;;;;;;;;;8.00;8.00;;;;;26.20;49.78;101057.34;2095634;28;47105;-51
2022/08/24 00:12:43;;;;;;;;;5.40;5.00;;;;;26.17;50.19;101058.47;2096694;28;47577;-54
2022/08/24 00:13:45;;;;;;;;;9.75;8.75;;;;;26.18;50.08;101059.34;2105663;27;48307;-52
2022/08/24 00:14:45;;;;;;;;;5.60;5.60;;;;;26.17;49.97;101055.75;2104960;28;47907;-52
2022/08/24 00:15:45;;;;;;;;;8.75;8.50;;;;;26.17;50.17;101054.84;2110168;27;47648;-51
2022/08/24 00:16:46;;;;;;;;;5.00;5.00;;;;;26.16;50.58;101055.84;2111692;27;47296;-52
2022/08/24 00:17:46;;;;;;;;;5.50;5.50;;;;;26.15;50.78;101051.41;2105024;28;46589;-53
2022/08/24 00:18:47;;;;;;;;;7.25;6.75;;;;;26.14;50.23;101050.53;2105542;27;47507;-50
2022/08/24 00:19:49;;;;;;;;;6.60;6.60;;;;;26.14;50.55;101055.97;2104667;28;47878;-52
2022/08/24 00:20:50;;;;;;;;;5.00;5.00;;;;;26.14;50.80;101060.56;2105594;27;48024;-52
2022/08/24 00:21:51;;;;;;;;;4.00;4.00;;;;;26.13;50.88;101056.97;2107858;27;47992;-50
2022/08/24 00:22:52;;;;;;;;;7.25;6.00;;;;;26.13;50.77;101059.69;2112887;27;47660;-55
2022/08/24 00:23:52;;;;;;;;;8.00;8.00;;;;;26.11;50.66;101057.09;2098219;28;47475;-51
2022/08/24 00:24:52;;;;;;;;;5.75;5.50;;;;;26.10;50.81;101049.94;2096955;28;47334;-53
2022/08/24 00:25:53;;;;;;;;;5.00;5.00;;;;;26.10;50.45;101047.22;2104889;28;47631;-52
2022/08/24 00:26:54;;;;;;;;;5.50;5.50;;;;;26.10;51.12;101051.78;2096581;28;47576;-51
2022/08/24 00:27:54;;;;;;;;;5.00;5.00;;;;;26.11;50.38;101050.78;2095548;28;47148;-52
2022/08/24 00:28:56;;;;;;;;;8.50;6.50;;;;;26.10;50.44;101058.09;2096328;28;47237;-54
2022/08/24 00:29:56;;;;;;;;;6.00;5.80;;;;;26.10;50.94;101058.09;2105431;27;48048;-51
2022/08/24 00:30:57;;;;;;;;;5.00;3.75;;;;;26.11;51.05;101058.94;2101012;28;47942;-52
2022/08/24 00:31:58;;;;;;;;;4.50;4.50;;;;;26.11;50.61;101061.66;2104257;27;47461;-53
2022/08/24 00:32:58;;;;;;;;;6.00;5.00;;;;;26.10;51.03;101052.66;2106243;27;47583;-51
2022/08/24 00:33:58;;;;;;;;;5.25;5.25;;;;;26.10;51.26;101060.81;2112871;27;47731;-52
2022/08/24 00:34:59;;;;;;;;;6.50;6.50;;;;;26.09;50.78;101060.94;2112638;27;47824;-50
2022/08/24 00:35:59;;;;;;;;;4.25;4.25;;;;;26.08;51.23;101056.50;2112933;27;47570;-51
2022/08/24 00:37:00;;;;;;;;;4.50;4.25;;;;;26.08;51.38;101061.94;2113066;27;47484;-54
2022/08/24 00:38:00;;;;;;;;;5.25;5.25;;;;;26.07;50.79;101058.34;2110251;27;47390;-50
2022/08/24 00:39:02;;;;;;;;;6.00;5.50;;;;;26.06;50.90;101056.63;2104291;28;47889;-49
2022/08/24 00:40:11;;;;;;;;;3.40;3.40;;;;;26.05;51.44;101056.75;2105826;27;47410;-53
2022/08/24 00:41:13;;;;;;;;;6.40;5.00;;;;;26.04;51.04;101055.00;2100294;27;47896;-49
2022/08/24 00:42:14;;;;;;;;;5.20;5.20;;;;;26.04;50.88;101055.00;2104432;28;47886;-48
2022/08/24 00:43:19;;;;;;;;;6.25;6.25;;;;;26.02;51.53;101057.84;2105615;27;48034;-53
2022/08/24 00:44:20;;;;;;;;;5.00;5.00;;;;;26.02;51.55;101054.25;2096201;28;47255;-51
2022/08/24 00:45:23;;;;;;;;;6.00;6.00;;;;;26.01;51.37;101060.69;2095350;28;47680;-51
2022/08/24 00:46:35;;;;;;;;;5.00;5.00;;;;;25.99;51.43;101055.38;2105642;27;47426;-52
2022/08/24 00:48:01;;;;;;;;;4.80;4.80;;;;;25.98;51.07;101056.38;2104996;27;47943;-51
2022/08/24 00:49:12;;;;;;;;;6.00;6.00;;;;;25.98;51.87;101055.50;2062040;28;47641;-49
2022/08/24 00:50:37;;;;;;;;;4.40;4.40;;;;;25.97;51.83;101056.50;2062315;28;47546;-49
2022/08/24 00:51:48;;;;;;;;;4.20;4.20;;;;;25.95;51.26;101053.91;2053548;28;47523;-52
2022/08/24 00:52:55;;;;;;;;;4.80;4.80;;;;;25.96;51.91;101052.03;2046498;28;47969;-53
2022/08/24 00:54:00;;;;;;;;;6.00;6.00;;;;;25.96;51.88;101046.59;2049373;28;47566;-51
2022/08/24 00:55:07;;;;;;;;;7.60;6.40;;;;;25.95;51.94;101048.47;2053072;28;47720;-52
2022/08/24 00:56:18;;;;;;;;;5.20;5.00;;;;;25.96;51.35;101047.47;2053696;28;47696;-51
2022/08/24 00:57:21;;;;;;;;;6.00;6.00;;;;;25.96;51.47;101044.75;2053399;28;47576;-52
2022/08/24 00:58:32;;;;;;;;;7.60;6.60;;;;;25.98;51.56;101050.06;2053972;28;47527;-50
2022/08/24 00:59:37;;;;;;;;;5.60;5.00;;;;;25.99;51.96;101049.06;2054210;28;47647;-53
2022/08/24 01:00:52;;;;;;;;;6.40;5.00;;;;;26.00;51.98;101050.78;2054788;28;48072;-52
2022/08/24 01:01:53;;;;;;;;;6.40;6.40;;;;;26.00;51.41;101048.94;2053994;28;47335;-52
2022/08/24 01:03:00;;;;;;;;;6.60;6.60;;;;;26.02;51.88;101056.97;2054979;28;47404;-53
2022/08/24 01:04:01;;;;;;;;;6.00;6.00;;;;;26.02;51.48;101049.69;2054610;28;47917;-50
2022/08/24 01:05:06;;;;;;;;;5.80;5.20;;;;;26.03;51.32;101045.09;2054409;28;47774;-53
2022/08/24 01:06:07;;;;;;;;;7.60;6.00;;;;;26.03;51.33;101051.41;2053703;28;47647;-53
2022/08/24 01:07:07;;;;;;;;;5.40;5.40;;;;;26.04;51.46;101046.81;2052659;28;47378;-52
2022/08/24 01:08:10;;;;;;;;;4.00;4.00;;;;;26.04;51.58;101050.44;2054143;28;47158;-52
2022/08/24 01:09:10;;;;;;;;;4.80;4.80;;;;;26.05;51.64;101052.16;2055169;28;47523;-55
2022/08/24 01:10:15;;;;;;;;;5.25;5.25;;;;;26.04;52.06;101047.72;2054335;28;47564;-54
2022/08/24 01:11:22;;;;;;;;;4.80;4.80;;;;;26.05;51.54;101054.03;2053976;28;48146;-54
2022/08/24 01:12:24;;;;;;;;;6.00;4.40;;;;;26.05;51.83;101051.31;2054602;28;47464;-52
2022/08/24 01:13:25;;;;;;;;;4.60;4.60;;;;;26.04;52.22;101045.00;2054233;28;47608;-49
2022/08/24 01:14:25;;;;;;;;;4.40;4.00;;;;;26.04;52.18;101047.72;2054784;28;47535;-54
2022/08/24 01:15:26;;;;;;;;;4.50;4.50;;;;;26.05;52.14;101049.44;2055057;28;47474;-49
2022/08/24 01:19:29;;;;;;;;;3.80;3.80;;;;;26.04;51.65;101053.16;2048703;28;47458;-53
2022/08/24 01:20:30;;;;;;;;;5.00;4.80;;;;;26.05;51.64;101056.75;2056184;28;47152;-50
2022/08/24 01:21:45;;;;;;;;;4.50;3.25;;;;;26.04;51.66;101046.81;2047116;28;47665;-51
2022/08/24 01:22:54;;;;;;;;;3.20;3.20;;;;;26.02;51.82;101056.97;2049099;28;47667;-54
2022/08/24 01:23:58;;;;;;;;;5.80;5.20;;;;;26.00;52.07;101048.06;2056057;28;47724;-54
2022/08/24 01:24:59;;;;;;;;;5.00;5.00;;;;;25.98;51.80;101050.06;2056006;28;47812;-51
2022/08/24 01:26:01;;;;;;;;;4.00;4.00;;;;;25.96;52.14;101057.47;2055391;28;47265;-53
2022/08/24 01:27:02;;;;;;;;;5.20;5.20;;;;;25.94;52.13;101049.44;2081853;28;47570;-52
2022/08/24 01:28:08;;;;;;;;;5.40;4.40;;;;;25.92;51.95;101051.44;2088497;28;47567;-53
2022/08/24 01:29:13;;;;;;;;;5.60;5.60;;;;;25.92;51.59;101058.69;2091139;28;47749;-52
2022/08/24 01:30:15;;;;;;;;;3.40;3.40;;;;;25.90;51.72;101058.81;2106741;27;47468;-49
2022/08/24 01:31:19;;;;;;;;;4.60;4.60;;;;;25.89;51.97;101051.66;2100791;27;47365;-52
2022/08/24 01:32:23;;;;;;;;;5.00;5.00;;;;;25.88;51.61;101058.09;2105953;28;47736;-50
2022/08/24 01:33:28;;;;;;;;;5.40;5.40;;;;;25.87;52.29;101053.63;2106436;27;48106;-51
2022/08/24 01:34:28;;;;;;;;;4.40;4.40;;;;;25.85;52.49;101052.91;2105897;27;47705;-52
2022/08/24 01:35:30;;;;;;;;;4.00;4.00;;;;;25.83;51.92;101059.47;2105812;27;47657;-51
2022/08/24 01:36:44;;;;;;;;;6.00;6.00;;;;;25.82;52.45;101055.88;2106354;27;47298;-55
2022/08/24 01:37:45;;;;;;;;;6.80;6.40;;;;;25.79;52.26;101062.44;2106588;27;47471;-50
2022/08/24 01:38:47;;;;;;;;;4.00;4.00;;;;;25.76;52.54;101062.66;2105660;28;47749;-54
2022/08/24 01:39:50;;;;;;;;;5.00;5.00;;;;;25.75;52.57;101054.63;2106185;27;46601;-53
2022/08/24 01:40:58;;;;;;;;;6.40;5.60;;;;;25.73;52.11;101062.03;2105536;28;47087;-54
2022/08/24 01:42:00;;;;;;;;;4.20;4.20;;;;;25.71;52.12;101054.00;2097354;28;47579;-49
2022/08/24 01:43:04;;;;;;;;;5.60;5.60;;;;;25.70;52.81;101056.84;2102172;27;47566;-50
2022/08/24 01:44:05;;;;;;;;;6.00;5.80;;;;;25.68;52.14;101056.94;2096013;28;48472;-53
2022/08/24 01:45:06;;;;;;;;;5.80;5.80;;;;;25.68;52.81;101058.81;2097897;28;47837;-49
2022/08/24 01:46:07;;;;;;;;;4.00;4.00;;;;;25.67;52.16;101062.50;2097333;28;47460;-51
2022/08/24 01:47:10;;;;;;;;;6.25;5.25;;;;;25.64;52.37;101057.28;2096693;28;47676;-49
2022/08/24 01:48:12;;;;;;;;;4.20;4.20;;;;;25.64;52.84;101062.72;2112194;27;48054;-53
2022/08/24 01:49:14;;;;;;;;;5.00;4.00;;;;;25.62;52.97;101064.72;2112872;27;47758;-54
2022/08/24 01:50:14;;;;;;;;;4.20;4.20;;;;;25.60;52.27;101061.25;2105591;27;48076;-51
2022/08/24 01:51:15;;;;;;;;;8.00;7.00;;;;;25.60;52.52;101063.97;2106435;27;47914;-52
2022/08/24 01:52:20;;;;;;;;;4.25;4.00;;;;;25.58;53.05;101057.78;2107412;27;47568;-51
2022/08/24 01:53:21;;;;;;;;;7.20;6.60;;;;;25.57;52.85;101056.94;2098811;28;47754;-52
2022/08/24 01:54:22;;;;;;;;;5.00;5.00;;;;;25.56;52.81;101055.22;2116461;27;46987;-50
2022/08/24 01:55:22;;;;;;;;;4.50;4.50;;;;;25.55;53.05;101058.91;2113360;27;47733;-52
2022/08/24 01:56:22;;;;;;;;;4.75;3.75;;;;;25.54;52.97;101057.19;2111899;27;47755;-53
2022/08/24 01:57:25;;;;;;;;;4.50;4.25;;;;;25.55;52.84;101068.91;2113790;27;47040;-53
2022/08/24 01:58:25;;;;;;;;;5.00;5.00;;;;;25.54;52.71;101062.63;2105478;28;47216;-48
2022/08/24 01:59:26;;;;;;;;;6.50;5.25;;;;;25.52;53.36;101065.44;2088493;28;47740;-52
2022/08/24 02:00:27;;;;;;;;;6.25;5.00;;;;;25.52;53.24;101061.84;2087222;28;47609;-49
2022/08/24 02:01:30;;;;;;;;;4.00;4.00;;;;;25.50;53.44;101064.69;2097442;28;47297;-51
2022/08/24 02:02:31;;;;;;;;;4.40;4.40;;;;;25.51;53.00;101062.84;2100513;27;48112;-52
2022/08/24 02:03:31;;;;;;;;;3.75;3.75;;;;;25.51;53.48;101062.84;2113658;27;47778;-50
2022/08/24 02:04:35;;;;;;;;;5.25;4.25;;;;;25.50;53.09;101058.38;2113946;27;47419;-50
2022/08/24 02:05:36;;;;;;;;;5.00;5.00;;;;;25.49;52.89;101064.81;2112865;27;47197;-53
2022/08/24 02:06:37;;;;;;;;;6.25;6.25;;;;;25.49;53.02;101060.25;2105048;28;49096;-53
2022/08/24 02:07:39;;;;;;;;;6.20;4.80;;;;;25.47;53.02;101056.78;2106371;27;48034;-52
2022/08/24 02:08:39;;;;;;;;;5.00;5.00;;;;;25.46;53.10;101057.78;2106187;27;47273;-52
2022/08/24 02:09:40;;;;;;;;;4.00;4.00;;;;;25.47;53.10;101056.78;2105392;28;47455;-51
2022/08/24 02:10:41;;;;;;;;;4.50;4.50;;;;;25.46;53.07;101055.06;2106647;27;47389;-49
2022/08/24 02:11:42;;;;;;;;;3.50;3.50;;;;;25.44;53.13;101057.03;2105183;28;47393;-52
2022/08/24 02:12:56;;;;;;;;;5.00;5.00;;;;;25.44;53.43;101050.72;2106308;27;47988;-52
2022/08/24 02:13:56;;;;;;;;;7.20;5.60;;;;;25.43;53.77;101049.88;2106177;27;47958;-52
2022/08/24 02:14:57;;;;;;;;;4.00;4.00;;;;;25.44;53.42;101056.16;2105364;27;47886;-54
2022/08/24 02:15:58;;;;;;;;;6.75;6.00;;;;;25.42;53.79;101056.28;2112324;27;47952;-54
2022/08/24 02:16:58;;;;;;;;;5.50;5.50;;;;;25.42;53.24;101053.56;2100968;28;47415;-54
2022/08/24 02:17:59;;;;;;;;;7.25;7.25;;;;;25.43;53.80;101054.44;2096259;28;47222;-53
2022/08/24 02:19:00;;;;;;;;;5.80;5.00;;;;;25.41;53.48;101054.56;2104869;27;48001;-52
2022/08/24 02:20:01;;;;;;;;;6.75;6.75;;;;;25.41;53.99;101053.66;2105040;27;47213;-50
2022/08/24 02:21:02;;;;;;;;;5.00;5.00;;;;;25.39;53.64;101053.78;2105275;28;47184;-52
2022/08/24 02:22:04;;;;;;;;;6.00;6.00;;;;;25.37;53.61;101053.06;2106121;27;47902;-52
2022/08/24 02:23:05;;;;;;;;;5.40;5.40;;;;;25.36;53.52;101058.59;2088570;28;47814;-53
2022/08/24 02:24:06;;;;;;;;;5.00;5.00;;;;;25.35;53.48;101054.16;2087475;28;48215;-53
2022/08/24 02:25:07;;;;;;;;;8.00;7.00;;;;;25.32;53.62;101058.00;2095399;28;47864;-52
2022/08/24 02:26:09;;;;;;;;;6.00;5.00;;;;;25.33;53.76;101058.84;2078987;28;47259;-53
2022/08/24 02:27:10;;;;;;;;;7.60;6.00;;;;;25.31;53.88;101056.25;2106213;27;47763;-50
2022/08/24 02:28:11;;;;;;;;;5.25;5.25;;;;;25.30;54.34;101053.66;2106405;27;47684;-52
2022/08/24 02:29:11;;;;;;;;;5.40;5.40;;;;;25.31;53.78;101061.69;2105162;28;48017;-51
2022/08/24 02:30:12;;;;;;;;;5.75;5.75;;;;;25.32;53.97;101054.41;2106163;27;47416;-50
2022/08/24 02:31:13;;;;;;;;;5.00;5.00;;;;;25.32;54.23;101058.00;2101789;27;47364;-50
2022/08/24 02:32:13;;;;;;;;;4.00;4.00;;;;;25.32;54.38;101054.41;2105884;28;45886;-51
2022/08/24 02:33:14;;;;;;;;;4.50;4.50;;;;;25.32;54.32;101051.69;2106086;27;47652;-54
2022/08/24 02:34:15;;;;;;;;;5.00;5.00;;;;;25.33;54.21;101053.41;2105271;27;46972;-53
2022/08/24 02:35:16;;;;;;;;;6.40;6.40;;;;;25.33;54.06;101051.56;2105835;27;47642;-50
2022/08/24 02:36:16;;;;;;;;;5.50;5.00;;;;;25.35;53.83;101055.03;2106213;27;47355;-48
2022/08/24 02:37:17;;;;;;;;;4.00;4.00;;;;;25.37;53.67;101055.78;2105452;28;47477;-49
2022/08/24 02:38:18;;;;;;;;;5.60;5.60;;;;;25.37;54.02;101053.06;2105877;27;47475;-51
2022/08/24 02:39:19;;;;;;;;;4.75;4.75;;;;;25.35;53.97;101052.31;2105906;27;47247;-51
2022/08/24 02:40:20;;;;;;;;;5.00;5.00;;;;;25.35;53.76;101046.88;2104873;28;47703;-51
2022/08/24 02:41:24;;;;;;;;;7.00;6.00;;;;;25.36;54.37;101050.47;2105866;27;47958;-51
2022/08/24 02:42:24;;;;;;;;;4.60;4.60;;;;;25.34;54.23;101056.00;2096112;28;47500;-49
2022/08/24 02:43:25;;;;;;;;;5.50;5.50;;;;;25.33;54.10;101062.44;2097286;28;46309;-51
2022/08/24 02:44:25;;;;;;;;;4.00;4.00;;;;;25.32;53.90;101048.97;2106172;27;47590;-51
2022/08/24 02:45:26;;;;;;;;;5.75;4.50;;;;;25.31;53.92;101048.13;2096200;28;47536;-49
2022/08/24 02:46:28;;;;;;;;;6.00;4.25;;;;;25.29;54.64;101050.09;2088425;28;47571;-52
2022/08/24 02:47:29;;;;;;;;;3.60;3.60;;;;;25.29;54.49;101047.38;2097334;28;47612;-50
2022/08/24 02:48:29;;;;;;;;;8.00;6.25;;;;;25.28;54.18;101045.63;2104918;28;47986;-51
2022/08/24 02:49:30;;;;;;;;;6.00;6.00;;;;;25.30;54.16;101049.09;2110279;27;47913;-50
2022/08/24 02:50:30;;;;;;;;;6.00;6.00;;;;;25.32;54.35;101051.69;2113630;27;47513;-51
2022/08/24 02:51:32;;;;;;;;;7.00;7.00;;;;;25.31;54.49;101044.53;2105864;27;47439;-52
2022/08/24 02:52:34;;;;;;;;;7.00;6.80;;;;;25.31;54.08;101048.13;2087461;28;47733;-49
2022/08/24 02:53:35;;;;;;;;;5.60;5.60;;;;;25.29;54.30;101047.38;2088972;28;47708;-50
2022/08/24 02:54:35;;;;;;;;;7.00;7.00;;;;;25.28;53.86;101047.47;2104732;28;47638;-49
2022/08/24 02:55:38;;;;;;;;;5.50;5.50;;;;;25.26;54.30;101050.31;2105060;27;47587;-53
2022/08/24 02:56:38;;;;;;;;;5.00;5.00;;;;;25.26;54.07;101052.16;2113488;27;47770;-50
2022/08/24 02:57:39;;;;;;;;;7.00;7.00;;;;;25.26;54.13;101054.88;2111459;27;47572;-50
2022/08/24 02:58:39;;;;;;;;;5.00;5.00;;;;;25.23;54.50;101054.13;2105102;28;47349;-52
2022/08/24 02:59:40;;;;;;;;;4.75;4.75;;;;;25.23;54.81;101055.97;2111916;27;47192;-52
2022/08/24 03:00:42;;;;;;;;;8.00;7.25;;;;;25.22;54.40;101049.69;2112751;27;47943;-54
2022/08/24 03:01:44;;;;;;;;;9.00;7.00;;;;;25.22;54.51;101046.09;2105257;28;46398;-53
2022/08/24 03:02:44;;;;;;;;;5.00;5.00;;;;;25.22;54.56;101051.53;2105092;28;47928;-54
2022/08/24 03:03:45;;;;;;;;;8.00;7.00;;;;;25.21;54.49;101053.38;2105182;27;47816;-52
2022/08/24 03:04:46;;;;;;;;;6.00;6.00;;;;;25.20;54.48;101050.81;2113390;27;47525;-52
2022/08/24 03:05:46;;;;;;;;;8.00;8.00;;;;;25.19;54.91;101047.22;2110271;27;47533;-54
2022/08/24 03:06:47;;;;;;;;;9.00;7.50;;;;;25.19;54.98;101047.22;2096124;28;47719;-53
2022/08/24 03:07:47;;;;;;;;;7.00;7.00;;;;;25.18;54.97;101050.91;2097007;28;46854;-51
2022/08/24 03:08:49;;;;;;;;;6.50;5.50;;;;;25.18;55.06;101050.06;2107268;27;47704;-48
2022/08/24 03:09:50;;;;;;;;;7.60;6.20;;;;;25.17;54.96;101053.75;2113748;27;47242;-53
2022/08/24 03:10:50;;;;;;;;;8.00;8.00;;;;;25.16;54.87;101055.63;2108591;27;47824;-50
2022/08/24 03:11:51;;;;;;;;;6.00;6.00;;;;;25.16;55.11;101046.59;2105091;27;47337;-49
2022/08/24 03:12:52;;;;;;;;;6.75;6.75;;;;;25.15;54.44;101045.69;2096634;28;47420;-52
2022/08/24 03:13:54;;;;;;;;;9.00;9.00;;;;;25.16;55.17;101041.16;2097016;28;47524;-51
2022/08/24 03:14:55;;;;;;;;;6.80;6.80;;;;;25.15;54.77;101048.41;2104979;28;48043;-53
2022/08/24 03:15:57;;;;;;;;;5.75;5.50;;;;;25.16;55.15;101052.91;2111686;27;45736;-52
2022/08/24 03:16:57;;;;;;;;;8.00;7.00;;;;;25.15;55.38;101048.41;2110391;27;47439;-53
2022/08/24 03:17:58;;;;;;;;;7.25;6.25;;;;;25.14;54.82;101052.13;2095223;28;48076;-52
2022/08/24 03:18:58;;;;;;;;;8.75;8.75;;;;;25.14;55.19;101052.13;2096368;28;47222;-52
2022/08/24 03:20:00;;;;;;;;;6.75;6.75;;;;;25.14;55.29;101043.09;2096562;28;47232;-54
2022/08/24 03:21:02;;;;;;;;;7.40;7.40;;;;;25.13;54.91;101053.09;2096256;28;48141;-52
2022/08/24 03:22:03;;;;;;;;;9.00;9.00;;;;;25.13;55.29;101054.97;2106039;27;48009;-50
2022/08/24 03:23:04;;;;;;;;;7.20;7.20;;;;;25.13;54.91;101052.25;2104941;27;47909;-51
2022/08/24 03:24:05;;;;;;;;;8.50;8.50;;;;;25.12;55.04;101048.66;2096564;28;47395;-48
2022/08/24 03:25:07;;;;;;;;;10.20;9.60;;;;;25.13;54.83;101049.53;2096865;28;47515;-48
2022/08/24 03:26:08;;;;;;;;;11.20;11.20;;;;;25.13;54.89;101049.53;2086343;28;47845;-51
2022/08/24 03:27:08;;;;;;;;;11.25;11.00;;;;;25.14;55.21;101049.41;2087807;28;47426;-51
2022/08/24 03:28:10;;;;;;;;;11.75;10.25;;;;;25.16;55.33;101052.03;2104711;28;47731;-54
2022/08/24 03:29:11;;;;;;;;;9.50;7.50;;;;;25.17;55.04;101043.75;2104915;28;47889;-51
2022/08/24 03:30:16;;;;;;;;;9.25;9.25;;;;;25.19;55.03;101043.63;2105637;27;47468;-49
2022/08/24 03:31:17;;;;;;;;;13.60;9.60;;;;;25.19;55.02;101047.22;2101167;27;47080;-50
2022/08/24 03:32:18;;;;;;;;;9.25;9.25;;;;;25.19;55.13;101046.34;2104787;28;47687;-50
2022/08/24 03:33:18;;;;;;;;;10.25;9.25;;;;;25.17;54.96;101048.31;2105670;27;46514;-53
2022/08/24 03:34:19;;;;;;;;;9.75;7.25;;;;;25.16;54.83;101042.03;2104820;28;47962;-51
2022/08/24 03:35:21;;;;;;;;;9.00;8.67;;;;;25.15;55.04;101045.69;2087419;28;47551;-54
2022/08/24 03:36:21;;;;;;;;;8.20;8.20;;;;;25.14;55.31;101049.41;2086622;28;47386;-52
2022/08/24 03:37:22;;;;;;;;;7.50;7.50;;;;;25.15;55.20;101052.97;2104718;28;48013;-51
2022/08/24 03:38:23;;;;;;;;;12.25;10.50;;;;;25.13;55.36;101050.38;2096992;28;47177;-52
2022/08/24 03:39:23;;;;;;;;;10.40;10.40;;;;;25.12;55.14;101047.81;2096731;27;47712;-50
2022/08/24 03:40:23;;;;;;;;;14.50;14.00;;;;;25.12;55.28;101050.50;2111017;27;47439;-49
2022/08/24 03:41:24;;;;;;;;;14.00;14.00;;;;;25.09;55.53;101048.91;2108355;27;47348;-52
2022/08/24 03:42:25;;;;;;;;;12.25;11.50;;;;;25.07;55.22;101042.72;2113171;27;47072;-52
2022/08/24 03:44:44;;;;;;;;;12.00;12.00;;;;;25.07;55.33;101048.16;2109757;27;47406;-54
2022/08/24 03:45:44;;;;;;;;;14.00;13.00;;;;;25.07;55.80;101050.00;2112916;27;47927;-52
2022/08/24 03:46:45;;;;;;;;;14.50;11.75;;;;;25.05;55.39;101044.72;2113169;27;48064;-52
2022/08/24 03:47:46;;;;;;;;;13.00;13.00;;;;;25.04;55.24;101044.81;2113195;27;47758;-49
2022/08/24 03:48:47;;;;;;;;;12.60;12.60;;;;;25.03;55.32;101043.97;2113507;27;46647;-49
2022/08/24 03:49:49;;;;;;;;;14.00;11.00;;;;;25.03;55.62;101037.63;2106939;27;47846;-52
2022/08/24 03:50:50;;;;;;;;;13.20;12.00;;;;;25.02;55.53;101042.19;2097014;28;47546;-49
2022/08/24 03:51:50;;;;;;;;;11.25;11.25;;;;;25.02;55.84;101038.63;2104034;28;47976;-51
2022/08/24 03:52:50;;;;;;;;;8.50;8.50;;;;;25.02;55.75;101038.63;2110672;27;47114;-50
2022/08/24 03:53:52;;;;;;;;;13.25;11.25;;;;;25.02;55.89;101046.78;2110433;27;47330;-53
2022/08/24 03:54:52;;;;;;;;;15.40;14.60;;;;;25.01;55.60;101039.59;2095126;28;47225;-53
2022/08/24 03:55:52;;;;;;;;;14.50;14.50;;;;;25.01;55.98;101042.31;2096861;28;47467;-52
2022/08/24 03:56:53;;;;;;;;;13.25;13.25;;;;;25.00;56.05;101035.13;2086288;28;48130;-49
2022/08/24 03:57:53;;;;;;;;;12.25;12.25;;;;;24.99;55.91;101044.25;2088188;28;47481;-51
2022/08/24 03:58:54;;;;;;;;;12.00;12.00;;;;;24.98;55.69;101037.09;2097151;27;47344;-50
2022/08/24 03:59:55;;;;;;;;;15.00;15.00;;;;;24.97;55.86;101038.94;2105173;27;47665;-50
2022/08/24 04:00:55;;;;;;;;;14.00;12.75;;;;;24.96;55.98;101037.22;2106116;27;47606;-49
2022/08/24 04:01:56;;;;;;;;;10.75;9.50;;;;;24.95;55.92;101033.66;2095436;28;47233;-48
2022/08/24 04:02:57;;;;;;;;;11.00;11.00;;;;;24.94;55.86;101039.19;2103102;27;47516;-52
2022/08/24 04:03:57;;;;;;;;;7.00;7.00;;;;;24.93;55.79;101034.75;2112990;27;47684;-52
2022/08/24 04:04:58;;;;;;;;;10.50;10.00;;;;;24.93;56.25;101035.63;2113100;27;47913;-53
2022/08/24 04:05:58;;;;;;;;;9.75;9.75;;;;;24.92;55.92;101035.75;2108504;27;48045;-49
2022/08/24 04:06:59;;;;;;;;;10.25;10.00;;;;;24.90;55.94;101033.16;2105991;27;47332;-50
2022/08/24 04:07:59;;;;;;;;;9.00;9.00;;;;;24.88;55.87;101037.81;2105435;27;47016;-50
2022/08/24 04:09:00;;;;;;;;;8.00;8.00;;;;;24.87;55.87;101030.63;2097608;28;47717;-49
2022/08/24 04:10:00;;;;;;;;;10.50;10.50;;;;;24.87;56.19;101038.78;2087216;28;47407;-50
2022/08/24 04:11:01;;;;;;;;;8.00;8.00;;;;;24.86;56.19;101037.06;2097505;28;47446;-51
2022/08/24 04:12:02;;;;;;;;;9.00;9.00;;;;;24.88;56.37;101034.22;2105932;27;47420;-50
2022/08/24 04:13:02;;;;;;;;;10.25;9.50;;;;;24.88;56.37;101036.94;2104594;28;47463;-49
2022/08/24 04:14:03;;;;;;;;;9.25;8.50;;;;;24.88;56.11;101036.94;2105905;27;48124;-53
2022/08/24 04:15:04;;;;;;;;;7.50;7.50;;;;;24.87;56.54;101036.06;2105456;27;47273;-51
2022/08/24 04:16:12;;;;;;;;;10.00;10.00;;;;;24.86;56.57;101037.06;2086507;28;47113;-50
2022/08/24 04:17:13;;;;;;;;;8.80;8.80;;;;;24.85;56.06;101038.03;2090959;28;48163;-53
2022/08/24 04:18:13;;;;;;;;;8.75;8.75;;;;;24.85;56.04;101046.19;2104749;27;47490;-49
2022/08/24 04:19:13;;;;;;;;;10.25;9.25;;;;;24.85;56.26;101038.03;2106100;27;47445;-54
2022/08/24 04:20:14;;;;;;;;;8.00;8.00;;;;;24.85;56.29;101043.47;2106285;27;47822;-52
2022/08/24 04:21:23;;;;;;;;;8.50;8.50;;;;;24.84;56.64;101041.75;2104475;28;47625;-53
2022/08/24 04:22:29;;;;;;;;;10.00;8.80;;;;;24.82;56.49;101042.84;2079734;28;47694;-52
2022/08/24 04:23:30;;;;;;;;;10.20;8.40;;;;;24.80;56.28;101052.97;2083499;28;46937;-52
2022/08/24 04:24:30;;;;;;;;;10.75;10.25;;;;;24.78;56.51;101039.50;2104212;28;47529;-50
2022/08/24 04:25:40;;;;;;;;;10.00;10.00;;;;;24.77;56.45;101045.91;2101320;28;45695;-47
2022/08/24 04:26:41;;;;;;;;;10.60;10.60;;;;;24.74;56.40;101046.13;2102753;28;47862;-53
2022/08/24 04:27:41;;;;;;;;;9.80;9.80;;;;;24.74;57.03;101045.28;2104393;28;47522;-51
2022/08/24 04:28:42;;;;;;;;;12.25;11.50;;;;;24.74;56.72;101037.13;2105733;27;48202;-51
2022/08/24 04:29:42;;;;;;;;;11.75;11.50;;;;;24.74;57.05;101047.97;2105975;27;47608;-51
2022/08/24 04:30:49;;;;;;;;;13.00;11.00;;;;;24.75;56.78;101036.13;2103358;28;47674;-51
2022/08/24 04:31:49;;;;;;;;;14.00;14.00;;;;;24.76;56.96;101036.03;2100760;28;47978;-51
2022/08/24 04:32:49;;;;;;;;;14.00;14.00;;;;;24.76;56.59;101033.31;2103064;28;47493;-50
2022/08/24 04:33:51;;;;;;;;;12.50;12.50;;;;;24.77;56.58;101037.75;2078735;28;47705;-51
2022/08/24 04:34:51;;;;;;;;;12.60;12.40;;;;;24.77;57.12;101034.16;2079403;28;47970;-49
2022/08/24 04:35:51;;;;;;;;;15.00;14.00;;;;;24.77;56.88;101036.88;2104697;28;45830;-52
2022/08/24 04:36:52;;;;;;;;;15.25;15.25;;;;;24.76;56.97;101035.16;2105445;27;47505;-54
2022/08/24 04:37:52;;;;;;;;;15.50;15.50;;;;;24.75;56.75;101037.00;2105620;27;47487;-52
2022/08/24 04:38:53;;;;;;;;;15.00;13.50;;;;;24.76;56.85;101046.00;2095004;28;46945;-52
2022/08/24 04:39:53;;;;;;;;;17.25;17.00;;;;;24.75;56.90;101047.00;2096750;28;47655;-53
2022/08/24 04:40:53;;;;;;;;;14.00;14.00;;;;;24.76;56.85;101051.44;2104710;27;47762;-52
2022/08/24 04:41:56;;;;;;;;;12.00;12.00;;;;;24.75;57.03;101037.00;2085975;28;46252;-48
2022/08/24 04:42:57;;;;;;;;;13.80;13.80;;;;;24.75;57.26;101037.00;2082539;28;47429;-48
2022/08/24 04:43:59;;;;;;;;;10.40;10.00;;;;;24.78;56.95;101050.38;2104396;28;46745;-54
2022/08/24 04:44:59;;;;;;;;;13.40;13.40;;;;;24.80;57.23;101034.81;2103132;28;47624;-53
2022/08/24 04:46:04;;;;;;;;;12.25;11.75;;;;;24.82;57.12;101032.84;2103709;28;47676;-53
2022/08/24 04:47:07;;;;;;;;;13.00;12.00;;;;;24.82;56.96;101030.13;2112539;27;47184;-51
2022/08/24 04:48:08;;;;;;;;;15.60;15.60;;;;;24.85;57.06;101037.19;2106851;27;48229;-49
2022/08/24 04:49:10;;;;;;;;;13.80;13.80;;;;;24.83;56.74;101031.88;2105502;27;47846;-51
2022/08/24 04:50:10;;;;;;;;;12.60;12.40;;;;;24.84;56.70;101030.88;2104241;28;47559;-49
2022/08/24 04:51:13;;;;;;;;;16.00;14.50;;;;;24.84;56.95;101030.03;2095714;28;47460;-54